Alpental, Washington
Current Conditions -  °F | °C
As of 9:53 PM on Thursday 30 Oct 2014 (Local Time) from KRNT Reporting Station
Overcast Overcast  
Wind Chill: 56°   Ceiling: 3200
Heat Index: 56°   Visibility: 10mi
Dew Point: 54°   Wind: 3mph
Humidity: 93%   Direction: 150°SSE
Pressure: 29.78"   Gusts: NA
Location:  47.4076°N, 121.414°W
Report Text: KRNT 310453Z AUTO 15003KT 10SM BKN032 OVC043 13/12 A2978 RMK AO2 RAE51 SLP088 P0001 T01330122
Loading
Personal Weather Stations






























Interactive Weather Map New forecast layout! Learn more

10-Day Weather Forecast

Advertisements
Track Severe Weather on mobile